Terminal Aerodrome Forecast
Issued by NWS Mt. Holly, NJ

Home | Current Version | Previous Version | Text Only | Print | Product List | Glossary On
Versions: 1 2 3 4 5 6 7 8 9 10 11 12 13 14 15 16 17 18 19 20 21 22 23 24 25 26
000
FTUS41 KPHI 281130
TAFILG
TAF
KILG 281130Z 2812/2912 VRB03KT 6SM BR BKN060
     FM281400 13006KT P6SM SCT060
     FM281700 15010KT P6SM BKN050
     FM282300 12010KT P6SM SCT010 BKN050
      TEMPO 2901/2903 BKN010 OVC050
     FM290300 10008KT P6SM -SHRA OVC005
     FM290700 11006KT 2SM -SHRA BR OVC003=

USA.gov is the U.S. government's official web portal to all federal, state and local government web resources and services.